sensor_id;sensor_type;location;lat;lon;timestamp;P1;durP1;ratioP1;P2;durP2;ratioP2
33792;SDS011;20105;48.764;9.178;2022-07-23T00:01:54;4.90;;;4.40;;
33792;SDS011;20105;48.764;9.178;2022-07-23T00:04:20;5.00;;;4.60;;
33792;SDS011;20105;48.764;9.178;2022-07-23T00:06:45;4.17;;;3.87;;
33792;SDS011;20105;48.764;9.178;2022-07-23T00:09:11;3.80;;;3.50;;
33792;SDS011;20105;48.764;9.178;2022-07-23T00:11:36;4.97;;;4.50;;
33792;SDS011;20105;48.764;9.178;2022-07-23T00:14:02;4.60;;;4.13;;
33792;SDS011;20105;48.764;9.178;2022-07-23T00:16:28;3.97;;;3.67;;
33792;SDS011;20105;48.764;9.178;2022-07-23T00:18:54;4.30;;;4.00;;
33792;SDS011;20105;48.764;9.178;2022-07-23T00:21:19;4.43;;;4.13;;
33792;SDS011;20105;48.764;9.178;2022-07-23T00:23:45;3.70;;;3.40;;
33792;SDS011;20105;48.764;9.178;2022-07-23T00:26:10;4.47;;;3.60;;
33792;SDS011;20105;48.764;9.178;2022-07-23T00:28:36;4.83;;;3.50;;
33792;SDS011;20105;48.764;9.178;2022-07-23T00:31:01;4.00;;;3.70;;
33792;SDS011;20105;48.764;9.178;2022-07-23T00:33:27;4.07;;;3.67;;
33792;SDS011;20105;48.764;9.178;2022-07-23T00:35:53;4.57;;;3.40;;
33792;SDS011;20105;48.764;9.178;2022-07-23T00:38:18;3.67;;;3.27;;
33792;SDS011;20105;48.764;9.178;2022-07-23T00:40:44;3.97;;;3.23;;
33792;SDS011;20105;48.764;9.178;2022-07-23T00:43:09;4.37;;;3.97;;
33792;SDS011;20105;48.764;9.178;2022-07-23T00:45:35;4.43;;;4.03;;
33792;SDS011;20105;48.764;9.178;2022-07-23T00:48:00;3.47;;;3.27;;
33792;SDS011;20105;48.764;9.178;2022-07-23T00:50:27;3.67;;;3.37;;
33792;SDS011;20105;48.764;9.178;2022-07-23T00:52:53;5.73;;;3.80;;
33792;SDS011;20105;48.764;9.178;2022-07-23T00:55:19;3.93;;;3.23;;
33792;SDS011;20105;48.764;9.178;2022-07-23T00:57:44;4.57;;;4.17;;
33792;SDS011;20105;48.764;9.178;2022-07-23T01:00:11;3.67;;;3.47;;
33792;SDS011;20105;48.764;9.178;2022-07-23T01:02:39;3.73;;;3.43;;
33792;SDS011;20105;48.764;9.178;2022-07-23T01:05:06;4.10;;;3.60;;
33792;SDS011;20105;48.764;9.178;2022-07-23T01:07:32;3.80;;;3.50;;
33792;SDS011;20105;48.764;9.178;2022-07-23T01:09:58;4.20;;;3.90;;
33792;SDS011;20105;48.764;9.178;2022-07-23T01:12:24;4.13;;;3.83;;
33792;SDS011;20105;48.764;9.178;2022-07-23T01:14:53;3.97;;;3.67;;
33792;SDS011;20105;48.764;9.178;2022-07-23T01:17:20;3.63;;;3.30;;
33792;SDS011;20105;48.764;9.178;2022-07-23T01:19:46;4.43;;;3.93;;
33792;SDS011;20105;48.764;9.178;2022-07-23T01:22:11;4.07;;;3.77;;
33792;SDS011;20105;48.764;9.178;2022-07-23T01:24:37;4.30;;;4.00;;
33792;SDS011;20105;48.764;9.178;2022-07-23T01:27:03;4.30;;;4.00;;
33792;SDS011;20105;48.764;9.178;2022-07-23T01:29:30;4.00;;;3.60;;
33792;SDS011;20105;48.764;9.178;2022-07-23T01:31:56;3.63;;;3.40;;
33792;SDS011;20105;48.764;9.178;2022-07-23T01:34:21;3.70;;;3.50;;
33792;SDS011;20105;48.764;9.178;2022-07-23T01:36:47;4.30;;;4.00;;
33792;SDS011;20105;48.764;9.178;2022-07-23T01:39:12;3.90;;;3.60;;
33792;SDS011;20105;48.764;9.178;2022-07-23T01:41:38;3.90;;;3.60;;
33792;SDS011;20105;48.764;9.178;2022-07-23T01:44:03;3.30;;;2.90;;
33792;SDS011;20105;48.764;9.178;2022-07-23T01:46:29;4.37;;;3.97;;
33792;SDS011;20105;48.764;9.178;2022-07-23T01:48:54;5.30;;;3.90;;
33792;SDS011;20105;48.764;9.178;2022-07-23T01:51:20;4.00;;;3.70;;
33792;SDS011;20105;48.764;9.178;2022-07-23T01:53:46;6.40;;;3.87;;
33792;SDS011;20105;48.764;9.178;2022-07-23T01:56:11;4.17;;;3.77;;
33792;SDS011;20105;48.764;9.178;2022-07-23T01:58:37;3.50;;;3.30;;
33792;SDS011;20105;48.764;9.178;2022-07-23T02:01:02;4.00;;;3.70;;
33792;SDS011;20105;48.764;9.178;2022-07-23T02:03:28;3.50;;;3.20;;
33792;SDS011;20105;48.764;9.178;2022-07-23T02:05:53;5.20;;;3.73;;
33792;SDS011;20105;48.764;9.178;2022-07-23T02:08:19;3.53;;;3.33;;
33792;SDS011;20105;48.764;9.178;2022-07-23T02:10:45;3.83;;;3.30;;
33792;SDS011;20105;48.764;9.178;2022-07-23T02:13:10;4.33;;;4.00;;
33792;SDS011;20105;48.764;9.178;2022-07-23T02:15:36;4.40;;;4.00;;
33792;SDS011;20105;48.764;9.178;2022-07-23T02:18:02;3.90;;;3.60;;
33792;SDS011;20105;48.764;9.178;2022-07-23T02:20:28;3.83;;;3.53;;
33792;SDS011;20105;48.764;9.178;2022-07-23T02:22:53;4.00;;;3.70;;
33792;SDS011;20105;48.764;9.178;2022-07-23T02:25:19;3.93;;;3.63;;
33792;SDS011;20105;48.764;9.178;2022-07-23T02:27:44;4.70;;;4.30;;
33792;SDS011;20105;48.764;9.178;2022-07-23T02:30:10;4.40;;;4.00;;
33792;SDS011;20105;48.764;9.178;2022-07-23T02:32:36;4.43;;;4.03;;
33792;SDS011;20105;48.764;9.178;2022-07-23T02:35:02;4.47;;;4.07;;
33792;SDS011;20105;48.764;9.178;2022-07-23T02:37:29;3.83;;;3.53;;
33792;SDS011;20105;48.764;9.178;2022-07-23T02:39:54;4.60;;;4.20;;
33792;SDS011;20105;48.764;9.178;2022-07-23T02:42:20;4.37;;;3.83;;
33792;SDS011;20105;48.764;9.178;2022-07-23T02:44:46;3.73;;;3.40;;
33792;SDS011;20105;48.764;9.178;2022-07-23T02:47:11;3.40;;;3.20;;
33792;SDS011;20105;48.764;9.178;2022-07-23T02:49:37;4.03;;;3.63;;
33792;SDS011;20105;48.764;9.178;2022-07-23T02:52:03;3.57;;;3.27;;
33792;SDS011;20105;48.764;9.178;2022-07-23T02:54:28;3.83;;;3.53;;
33792;SDS011;20105;48.764;9.178;2022-07-23T02:56:54;4.33;;;3.87;;
33792;SDS011;20105;48.764;9.178;2022-07-23T02:59:19;4.37;;;3.90;;
33792;SDS011;20105;48.764;9.178;2022-07-23T03:01:45;4.57;;;4.17;;
33792;SDS011;20105;48.764;9.178;2022-07-23T03:04:11;4.40;;;3.90;;
33792;SDS011;20105;48.764;9.178;2022-07-23T03:06:37;3.70;;;3.50;;
33792;SDS011;20105;48.764;9.178;2022-07-23T03:09:03;4.33;;;3.93;;
33792;SDS011;20105;48.764;9.178;2022-07-23T03:11:29;4.37;;;4.07;;
33792;SDS011;20105;48.764;9.178;2022-07-23T03:13:55;4.20;;;3.67;;
33792;SDS011;20105;48.764;9.178;2022-07-23T03:16:21;4.13;;;3.73;;
33792;SDS011;20105;48.764;9.178;2022-07-23T03:18:47;9.70;;;4.17;;
33792;SDS011;20105;48.764;9.178;2022-07-23T03:21:12;4.43;;;4.07;;
33792;SDS011;20105;48.764;9.178;2022-07-23T03:23:38;5.60;;;4.40;;
33792;SDS011;20105;48.764;9.178;2022-07-23T03:26:04;5.13;;;4.33;;
33792;SDS011;20105;48.764;9.178;2022-07-23T03:28:29;5.27;;;4.80;;
33792;SDS011;20105;48.764;9.178;2022-07-23T03:30:55;5.00;;;4.50;;
33792;SDS011;20105;48.764;9.178;2022-07-23T03:33:22;4.20;;;3.90;;
33792;SDS011;20105;48.764;9.178;2022-07-23T03:35:47;4.90;;;4.40;;
33792;SDS011;20105;48.764;9.178;2022-07-23T03:38:13;5.13;;;4.73;;
33792;SDS011;20105;48.764;9.178;2022-07-23T03:40:39;5.37;;;4.40;;
33792;SDS011;20105;48.764;9.178;2022-07-23T03:43:07;4.70;;;4.30;;
33792;SDS011;20105;48.764;9.178;2022-07-23T03:45:33;6.37;;;4.20;;
33792;SDS011;20105;48.764;9.178;2022-07-23T03:47:59;5.67;;;4.87;;
33792;SDS011;20105;48.764;9.178;2022-07-23T03:50:24;4.83;;;4.43;;
33792;SDS011;20105;48.764;9.178;2022-07-23T03:52:50;5.17;;;4.77;;
33792;SDS011;20105;48.764;9.178;2022-07-23T03:55:16;5.30;;;4.90;;
33792;SDS011;20105;48.764;9.178;2022-07-23T03:57:42;4.70;;;4.30;;
33792;SDS011;20105;48.764;9.178;2022-07-23T04:00:08;4.90;;;4.50;;
33792;SDS011;20105;48.764;9.178;2022-07-23T04:02:35;5.50;;;5.00;;
33792;SDS011;20105;48.764;9.178;2022-07-23T04:05:01;5.27;;;4.37;;
33792;SDS011;20105;48.764;9.178;2022-07-23T04:07:27;6.70;;;4.73;;
33792;SDS011;20105;48.764;9.178;2022-07-23T04:09:53;5.60;;;5.10;;
33792;SDS011;20105;48.764;9.178;2022-07-23T04:12:21;5.30;;;4.43;;
33792;SDS011;20105;48.764;9.178;2022-07-23T04:14:47;5.67;;;4.40;;
33792;SDS011;20105;48.764;9.178;2022-07-23T04:17:12;5.03;;;4.50;;
33792;SDS011;20105;48.764;9.178;2022-07-23T04:19:38;5.47;;;5.00;;
33792;SDS011;20105;48.764;9.178;2022-07-23T04:22:08;6.20;;;4.53;;
33792;SDS011;20105;48.764;9.178;2022-07-23T04:24:35;5.30;;;4.80;;
33792;SDS011;20105;48.764;9.178;2022-07-23T04:27:01;4.73;;;4.37;;
33792;SDS011;20105;48.764;9.178;2022-07-23T04:29:26;4.40;;;4.00;;
33792;SDS011;20105;48.764;9.178;2022-07-23T04:31:52;5.53;;;4.87;;
33792;SDS011;20105;48.764;9.178;2022-07-23T04:34:18;6.43;;;5.10;;
33792;SDS011;20105;48.764;9.178;2022-07-23T04:36:44;5.80;;;4.03;;
33792;SDS011;20105;48.764;9.178;2022-07-23T04:39:10;5.33;;;4.63;;
33792;SDS011;20105;48.764;9.178;2022-07-23T04:41:36;5.47;;;4.80;;
33792;SDS011;20105;48.764;9.178;2022-07-23T04:44:02;5.03;;;4.63;;
33792;SDS011;20105;48.764;9.178;2022-07-23T04:46:28;6.50;;;4.60;;
33792;SDS011;20105;48.764;9.178;2022-07-23T04:48:54;5.57;;;5.00;;
33792;SDS011;20105;48.764;9.178;2022-07-23T04:51:19;6.27;;;5.00;;
33792;SDS011;20105;48.764;9.178;2022-07-23T04:53:45;5.30;;;4.90;;
33792;SDS011;20105;48.764;9.178;2022-07-23T04:56:11;5.17;;;4.77;;
33792;SDS011;20105;48.764;9.178;2022-07-23T04:58:36;5.23;;;4.83;;
33792;SDS011;20105;48.764;9.178;2022-07-23T05:01:02;4.90;;;4.50;;
33792;SDS011;20105;48.764;9.178;2022-07-23T05:03:27;4.93;;;4.53;;
33792;SDS011;20105;48.764;9.178;2022-07-23T05:05:53;4.50;;;4.20;;
33792;SDS011;20105;48.764;9.178;2022-07-23T05:08:19;5.53;;;4.53;;
33792;SDS011;20105;48.764;9.178;2022-07-23T05:10:45;5.63;;;4.97;;
33792;SDS011;20105;48.764;9.178;2022-07-23T05:13:10;5.17;;;4.77;;
33792;SDS011;20105;48.764;9.178;2022-07-23T05:15:36;7.30;;;5.73;;
33792;SDS011;20105;48.764;9.178;2022-07-23T05:18:01;5.40;;;4.50;;
33792;SDS011;20105;48.764;9.178;2022-07-23T05:20:27;4.47;;;3.83;;
33792;SDS011;20105;48.764;9.178;2022-07-23T05:22:53;7.10;;;4.70;;
33792;SDS011;20105;48.764;9.178;2022-07-23T05:25:18;4.03;;;3.77;;
33792;SDS011;20105;48.764;9.178;2022-07-23T05:27:44;5.20;;;4.80;;
33792;SDS011;20105;48.764;9.178;2022-07-23T05:30:09;5.47;;;4.77;;
33792;SDS011;20105;48.764;9.178;2022-07-23T05:32:35;4.97;;;4.57;;
33792;SDS011;20105;48.764;9.178;2022-07-23T05:35:02;4.60;;;4.20;;
33792;SDS011;20105;48.764;9.178;2022-07-23T05:37:28;5.20;;;4.70;;
33792;SDS011;20105;48.764;9.178;2022-07-23T05:39:54;6.10;;;5.50;;
33792;SDS011;20105;48.764;9.178;2022-07-23T05:42:19;5.60;;;4.60;;
33792;SDS011;20105;48.764;9.178;2022-07-23T05:44:45;4.30;;;4.00;;
33792;SDS011;20105;48.764;9.178;2022-07-23T05:47:10;5.47;;;4.97;;
33792;SDS011;20105;48.764;9.178;2022-07-23T05:49:36;6.77;;;5.23;;
33792;SDS011;20105;48.764;9.178;2022-07-23T05:52:07;4.47;;;4.13;;
33792;SDS011;20105;48.764;9.178;2022-07-23T05:54:35;5.53;;;5.13;;
33792;SDS011;20105;48.764;9.178;2022-07-23T05:57:01;4.70;;;4.30;;
33792;SDS011;20105;48.764;9.178;2022-07-23T05:59:28;5.67;;;5.20;;
33792;SDS011;20105;48.764;9.178;2022-07-23T06:01:53;5.10;;;4.63;;
33792;SDS011;20105;48.764;9.178;2022-07-23T06:04:19;5.90;;;5.40;;
33792;SDS011;20105;48.764;9.178;2022-07-23T06:06:44;5.20;;;4.70;;
33792;SDS011;20105;48.764;9.178;2022-07-23T06:09:11;5.90;;;5.10;;
33792;SDS011;20105;48.764;9.178;2022-07-23T06:11:38;6.20;;;5.20;;
33792;SDS011;20105;48.764;9.178;2022-07-23T06:14:05;5.20;;;4.80;;
33792;SDS011;20105;48.764;9.178;2022-07-23T06:16:31;5.30;;;4.90;;
33792;SDS011;20105;48.764;9.178;2022-07-23T06:18:57;5.30;;;4.43;;
33792;SDS011;20105;48.764;9.178;2022-07-23T06:21:24;5.17;;;4.77;;
33792;SDS011;20105;48.764;9.178;2022-07-23T06:23:50;5.00;;;4.63;;
33792;SDS011;20105;48.764;9.178;2022-07-23T06:26:15;9.07;;;5.80;;
33792;SDS011;20105;48.764;9.178;2022-07-23T06:28:41;5.10;;;4.70;;
33792;SDS011;20105;48.764;9.178;2022-07-23T06:31:06;6.83;;;6.13;;
33792;SDS011;20105;48.764;9.178;2022-07-23T06:33:33;6.67;;;5.10;;
33792;SDS011;20105;48.764;9.178;2022-07-23T06:35:58;5.50;;;5.00;;
33792;SDS011;20105;48.764;9.178;2022-07-23T06:38:24;5.10;;;4.70;;
33792;SDS011;20105;48.764;9.178;2022-07-23T06:40:50;8.20;;;4.73;;
33792;SDS011;20105;48.764;9.178;2022-07-23T06:43:16;5.60;;;5.20;;
33792;SDS011;20105;48.764;9.178;2022-07-23T06:45:41;7.03;;;4.97;;
33792;SDS011;20105;48.764;9.178;2022-07-23T06:48:07;5.40;;;4.90;;
33792;SDS011;20105;48.764;9.178;2022-07-23T06:50:32;4.90;;;4.57;;
33792;SDS011;20105;48.764;9.178;2022-07-23T06:52:58;5.53;;;5.10;;
33792;SDS011;20105;48.764;9.178;2022-07-23T06:55:24;5.00;;;4.70;;
33792;SDS011;20105;48.764;9.178;2022-07-23T06:57:49;5.50;;;5.00;;
33792;SDS011;20105;48.764;9.178;2022-07-23T07:00:15;5.37;;;4.90;;
33792;SDS011;20105;48.764;9.178;2022-07-23T07:02:40;4.97;;;4.57;;
33792;SDS011;20105;48.764;9.178;2022-07-23T07:05:06;6.33;;;4.13;;
33792;SDS011;20105;48.764;9.178;2022-07-23T07:07:33;7.57;;;5.17;;
33792;SDS011;20105;48.764;9.178;2022-07-23T07:09:59;5.87;;;5.27;;
33792;SDS011;20105;48.764;9.178;2022-07-23T07:12:24;5.60;;;5.10;;
33792;SDS011;20105;48.764;9.178;2022-07-23T07:14:50;6.03;;;5.40;;
33792;SDS011;20105;48.764;9.178;2022-07-23T07:17:16;5.80;;;5.30;;
33792;SDS011;20105;48.764;9.178;2022-07-23T07:19:41;6.00;;;5.07;;
33792;SDS011;20105;48.764;9.178;2022-07-23T07:22:07;4.70;;;4.30;;
33792;SDS011;20105;48.764;9.178;2022-07-23T07:24:32;5.17;;;3.77;;
33792;SDS011;20105;48.764;9.178;2022-07-23T07:26:58;5.30;;;4.80;;
33792;SDS011;20105;48.764;9.178;2022-07-23T07:29:23;5.27;;;4.73;;
33792;SDS011;20105;48.764;9.178;2022-07-23T07:31:49;5.70;;;5.20;;
33792;SDS011;20105;48.764;9.178;2022-07-23T07:34:15;5.80;;;5.30;;
33792;SDS011;20105;48.764;9.178;2022-07-23T07:36:40;5.70;;;5.20;;
33792;SDS011;20105;48.764;9.178;2022-07-23T07:39:06;5.20;;;4.70;;
33792;SDS011;20105;48.764;9.178;2022-07-23T07:41:31;6.03;;;5.40;;
33792;SDS011;20105;48.764;9.178;2022-07-23T07:43:57;5.57;;;5.07;;
33792;SDS011;20105;48.764;9.178;2022-07-23T07:46:23;6.60;;;5.70;;
33792;SDS011;20105;48.764;9.178;2022-07-23T07:48:49;6.60;;;6.00;;
33792;SDS011;20105;48.764;9.178;2022-07-23T07:51:15;6.80;;;6.30;;
33792;SDS011;20105;48.764;9.178;2022-07-23T07:53:41;6.13;;;5.63;;
33792;SDS011;20105;48.764;9.178;2022-07-23T07:56:07;6.60;;;5.43;;
33792;SDS011;20105;48.764;9.178;2022-07-23T07:58:32;6.87;;;5.33;;
33792;SDS011;20105;48.764;9.178;2022-07-23T08:00:58;6.70;;;6.10;;
33792;SDS011;20105;48.764;9.178;2022-07-23T08:03:23;5.47;;;5.07;;
33792;SDS011;20105;48.764;9.178;2022-07-23T08:05:49;5.60;;;5.10;;
33792;SDS011;20105;48.764;9.178;2022-07-23T08:08:14;5.90;;;5.40;;
33792;SDS011;20105;48.764;9.178;2022-07-23T08:10:40;6.67;;;5.33;;
33792;SDS011;20105;48.764;9.178;2022-07-23T08:13:08;5.00;;;4.70;;
33792;SDS011;20105;48.764;9.178;2022-07-23T08:15:38;6.07;;;5.47;;
33792;SDS011;20105;48.764;9.178;2022-07-23T08:18:04;5.37;;;4.97;;
33792;SDS011;20105;48.764;9.178;2022-07-23T08:20:30;6.27;;;5.23;;
33792;SDS011;20105;48.764;9.178;2022-07-23T08:22:57;5.57;;;5.10;;
33792;SDS011;20105;48.764;9.178;2022-07-23T08:27:54;5.43;;;5.00;;
33792;SDS011;20105;48.764;9.178;2022-07-23T08:30:21;5.57;;;5.17;;
33792;SDS011;20105;48.764;9.178;2022-07-23T08:32:47;5.37;;;4.97;;
33792;SDS011;20105;48.764;9.178;2022-07-23T08:35:25;5.47;;;4.97;;
33792;SDS011;20105;48.764;9.178;2022-07-23T08:37:58;5.10;;;4.70;;
33792;SDS011;20105;48.764;9.178;2022-07-23T08:40:25;6.13;;;4.70;;
33792;SDS011;20105;48.764;9.178;2022-07-23T08:42:53;5.87;;;5.27;;
33792;SDS011;20105;48.764;9.178;2022-07-23T08:45:20;5.70;;;5.20;;
33792;SDS011;20105;48.764;9.178;2022-07-23T08:47:51;4.87;;;4.47;;
33792;SDS011;20105;48.764;9.178;2022-07-23T08:50:18;5.73;;;5.20;;
33792;SDS011;20105;48.764;9.178;2022-07-23T08:52:44;5.63;;;5.10;;
33792;SDS011;20105;48.764;9.178;2022-07-23T08:55:10;6.87;;;6.30;;
33792;SDS011;20105;48.764;9.178;2022-07-23T08:57:36;5.70;;;5.20;;
33792;SDS011;20105;48.764;9.178;2022-07-23T09:00:02;5.33;;;4.93;;
33792;SDS011;20105;48.764;9.178;2022-07-23T09:02:29;8.13;;;5.87;;
33792;SDS011;20105;48.764;9.178;2022-07-23T09:04:55;4.70;;;4.30;;
33792;SDS011;20105;48.764;9.178;2022-07-23T09:07:20;5.53;;;5.10;;
33792;SDS011;20105;48.764;9.178;2022-07-23T09:09:46;5.47;;;4.97;;
33792;SDS011;20105;48.764;9.178;2022-07-23T09:12:11;5.83;;;5.30;;
33792;SDS011;20105;48.764;9.178;2022-07-23T09:17:10;5.10;;;4.70;;
33792;SDS011;20105;48.764;9.178;2022-07-23T09:19:41;4.63;;;4.23;;
33792;SDS011;20105;48.764;9.178;2022-07-23T09:22:18;5.50;;;5.00;;
33792;SDS011;20105;48.764;9.178;2022-07-23T09:28:14;4.23;;;3.83;;
33792;SDS011;20105;48.764;9.178;2022-07-23T09:30:22;4.47;;;4.17;;
33792;SDS011;20105;48.764;9.178;2022-07-23T09:35:47;5.43;;;4.50;;
33792;SDS011;20105;48.764;9.178;2022-07-23T09:38:21;5.20;;;4.70;;
33792;SDS011;20105;48.764;9.178;2022-07-23T09:41:05;4.53;;;4.20;;
33792;SDS011;20105;48.764;9.178;2022-07-23T09:43:32;5.20;;;4.70;;
33792;SDS011;20105;48.764;9.178;2022-07-23T09:48:43;5.97;;;5.33;;
33792;SDS011;20105;48.764;9.178;2022-07-23T09:51:09;6.73;;;6.13;;
33792;SDS011;20105;48.764;9.178;2022-07-23T09:53:34;5.30;;;4.80;;
33792;SDS011;20105;48.764;9.178;2022-07-23T09:56:00;5.33;;;4.30;;
33792;SDS011;20105;48.764;9.178;2022-07-23T09:58:26;5.50;;;5.10;;
33792;SDS011;20105;48.764;9.178;2022-07-23T10:00:52;5.50;;;5.00;;
33792;SDS011;20105;48.764;9.178;2022-07-23T10:03:18;5.07;;;4.77;;
33792;SDS011;20105;48.764;9.178;2022-07-23T10:05:45;5.63;;;5.13;;
33792;SDS011;20105;48.764;9.178;2022-07-23T10:08:12;5.53;;;5.13;;
33792;SDS011;20105;48.764;9.178;2022-07-23T10:10:40;7.50;;;5.77;;
33792;SDS011;20105;48.764;9.178;2022-07-23T10:13:06;6.37;;;4.83;;
33792;SDS011;20105;48.764;9.178;2022-07-23T10:15:42;5.50;;;5.00;;
33792;SDS011;20105;48.764;9.178;2022-07-23T10:18:09;6.50;;;5.90;;
33792;SDS011;20105;48.764;9.178;2022-07-23T10:20:36;5.43;;;5.03;;
33792;SDS011;20105;48.764;9.178;2022-07-23T10:25:49;5.60;;;5.10;;
33792;SDS011;20105;48.764;9.178;2022-07-23T10:34:19;4.80;;;4.30;;
33792;SDS011;20105;48.764;9.178;2022-07-23T10:36:57;6.43;;;4.90;;
33792;SDS011;20105;48.764;9.178;2022-07-23T10:39:46;5.07;;;4.60;;
33792;SDS011;20105;48.764;9.178;2022-07-23T10:42:16;6.00;;;5.57;;
33792;SDS011;20105;48.764;9.178;2022-07-23T10:44:48;5.10;;;4.60;;
33792;SDS011;20105;48.764;9.178;2022-07-23T10:47:27;4.63;;;4.23;;
33792;SDS011;20105;48.764;9.178;2022-07-23T10:50:27;5.33;;;4.37;;
33792;SDS011;20105;48.764;9.178;2022-07-23T10:58:00;5.17;;;4.77;;
33792;SDS011;20105;48.764;9.178;2022-07-23T11:00:28;4.20;;;3.80;;
33792;SDS011;20105;48.764;9.178;2022-07-23T11:02:56;4.93;;;4.53;;
33792;SDS011;20105;48.764;9.178;2022-07-23T11:05:25;4.90;;;4.50;;
33792;SDS011;20105;48.764;9.178;2022-07-23T11:16:10;6.27;;;5.77;;
33792;SDS011;20105;48.764;9.178;2022-07-23T11:24:07;5.83;;;4.73;;
33792;SDS011;20105;48.764;9.178;2022-07-23T11:32:07;5.23;;;4.83;;
33792;SDS011;20105;48.764;9.178;2022-07-23T11:34:44;6.20;;;4.77;;
33792;SDS011;20105;48.764;9.178;2022-07-23T11:37:12;5.20;;;4.70;;
33792;SDS011;20105;48.764;9.178;2022-07-23T11:39:57;5.50;;;5.10;;
33792;SDS011;20105;48.764;9.178;2022-07-23T11:42:23;5.00;;;4.60;;
33792;SDS011;20105;48.764;9.178;2022-07-23T11:44:50;6.37;;;5.47;;
33792;SDS011;20105;48.764;9.178;2022-07-23T11:47:20;5.60;;;5.20;;
33792;SDS011;20105;48.764;9.178;2022-07-23T11:52:23;5.53;;;5.13;;
33792;SDS011;20105;48.764;9.178;2022-07-23T11:54:51;7.20;;;4.47;;
33792;SDS011;20105;48.764;9.178;2022-07-23T11:57:17;5.07;;;4.70;;
33792;SDS011;20105;48.764;9.178;2022-07-23T11:59:45;6.07;;;5.53;;
33792;SDS011;20105;48.764;9.178;2022-07-23T12:02:13;5.57;;;5.17;;
33792;SDS011;20105;48.764;9.178;2022-07-23T12:04:45;5.70;;;5.20;;
33792;SDS011;20105;48.764;9.178;2022-07-23T12:09:49;5.40;;;4.93;;
33792;SDS011;20105;48.764;9.178;2022-07-23T12:12:15;6.07;;;5.37;;
33792;SDS011;20105;48.764;9.178;2022-07-23T12:14:48;8.40;;;5.63;;
33792;SDS011;20105;48.764;9.178;2022-07-23T12:17:13;5.73;;;5.33;;
33792;SDS011;20105;48.764;9.178;2022-07-23T12:19:39;6.00;;;5.60;;
33792;SDS011;20105;48.764;9.178;2022-07-23T12:22:05;6.50;;;5.53;;
33792;SDS011;20105;48.764;9.178;2022-07-23T12:24:30;5.93;;;5.40;;
33792;SDS011;20105;48.764;9.178;2022-07-23T12:27:11;5.43;;;5.03;;
33792;SDS011;20105;48.764;9.178;2022-07-23T12:29:38;7.17;;;5.63;;
33792;SDS011;20105;48.764;9.178;2022-07-23T12:32:27;7.13;;;6.03;;
33792;SDS011;20105;48.764;9.178;2022-07-23T12:35:04;6.90;;;6.30;;
33792;SDS011;20105;48.764;9.178;2022-07-23T12:37:34;6.13;;;5.50;;
33792;SDS011;20105;48.764;9.178;2022-07-23T12:42:54;5.20;;;4.80;;
33792;SDS011;20105;48.764;9.178;2022-07-23T12:45:20;5.70;;;5.20;;
33792;SDS011;20105;48.764;9.178;2022-07-23T12:47:53;6.20;;;5.60;;
33792;SDS011;20105;48.764;9.178;2022-07-23T12:50:37;6.63;;;6.03;;
33792;SDS011;20105;48.764;9.178;2022-07-23T12:53:15;6.40;;;5.83;;
33792;SDS011;20105;48.764;9.178;2022-07-23T12:55:43;6.00;;;5.50;;
33792;SDS011;20105;48.764;9.178;2022-07-23T12:58:14;7.20;;;5.53;;
33792;SDS011;20105;48.764;9.178;2022-07-23T13:00:57;5.57;;;5.17;;
33792;SDS011;20105;48.764;9.178;2022-07-23T13:03:34;6.47;;;5.87;;
33792;SDS011;20105;48.764;9.178;2022-07-23T13:06:03;6.13;;;5.63;;
33792;SDS011;20105;48.764;9.178;2022-07-23T13:08:32;5.83;;;5.33;;
33792;SDS011;20105;48.764;9.178;2022-07-23T13:10:59;6.47;;;5.90;;
33792;SDS011;20105;48.764;9.178;2022-07-23T13:13:26;5.47;;;5.07;;
33792;SDS011;20105;48.764;9.178;2022-07-23T13:15:53;7.90;;;5.80;;
33792;SDS011;20105;48.764;9.178;2022-07-23T13:18:19;6.50;;;5.90;;
33792;SDS011;20105;48.764;9.178;2022-07-23T13:20:45;6.20;;;5.60;;
33792;SDS011;20105;48.764;9.178;2022-07-23T13:23:12;5.00;;;4.63;;
33792;SDS011;20105;48.764;9.178;2022-07-23T13:25:38;5.43;;;5.00;;
33792;SDS011;20105;48.764;9.178;2022-07-23T13:28:03;5.90;;;5.50;;
33792;SDS011;20105;48.764;9.178;2022-07-23T13:30:29;6.97;;;6.37;;
33792;SDS011;20105;48.764;9.178;2022-07-23T13:32:55;5.80;;;5.23;;
33792;SDS011;20105;48.764;9.178;2022-07-23T13:35:21;6.40;;;5.90;;
33792;SDS011;20105;48.764;9.178;2022-07-23T13:37:47;5.50;;;5.10;;
33792;SDS011;20105;48.764;9.178;2022-07-23T13:40:12;7.27;;;6.13;;
33792;SDS011;20105;48.764;9.178;2022-07-23T13:42:38;6.87;;;5.83;;
33792;SDS011;20105;48.764;9.178;2022-07-23T13:45:04;7.53;;;5.10;;
33792;SDS011;20105;48.764;9.178;2022-07-23T13:47:31;5.97;;;5.57;;
33792;SDS011;20105;48.764;9.178;2022-07-23T13:49:56;6.77;;;6.07;;
33792;SDS011;20105;48.764;9.178;2022-07-23T13:52:22;7.63;;;6.83;;
33792;SDS011;20105;48.764;9.178;2022-07-23T13:54:48;7.07;;;5.27;;
33792;SDS011;20105;48.764;9.178;2022-07-23T13:57:14;5.50;;;5.10;;
33792;SDS011;20105;48.764;9.178;2022-07-23T13:59:40;6.50;;;6.00;;
33792;SDS011;20105;48.764;9.178;2022-07-23T14:02:05;6.00;;;5.50;;
33792;SDS011;20105;48.764;9.178;2022-07-23T14:04:31;6.60;;;5.60;;
33792;SDS011;20105;48.764;9.178;2022-07-23T14:06:57;6.30;;;5.80;;
33792;SDS011;20105;48.764;9.178;2022-07-23T14:09:23;6.27;;;5.77;;
33792;SDS011;20105;48.764;9.178;2022-07-23T14:11:49;7.93;;;5.80;;
33792;SDS011;20105;48.764;9.178;2022-07-23T14:14:16;6.47;;;5.93;;
33792;SDS011;20105;48.764;9.178;2022-07-23T14:16:42;6.40;;;5.90;;
33792;SDS011;20105;48.764;9.178;2022-07-23T14:19:08;7.73;;;7.13;;
33792;SDS011;20105;48.764;9.178;2022-07-23T14:21:34;7.70;;;5.67;;
33792;SDS011;20105;48.764;9.178;2022-07-23T14:24:00;6.30;;;5.83;;
33792;SDS011;20105;48.764;9.178;2022-07-23T14:26:25;6.23;;;5.37;;
33792;SDS011;20105;48.764;9.178;2022-07-23T14:28:52;7.03;;;6.17;;
33792;SDS011;20105;48.764;9.178;2022-07-23T14:31:17;7.00;;;6.40;;
33792;SDS011;20105;48.764;9.178;2022-07-23T14:33:43;6.50;;;6.00;;
33792;SDS011;20105;48.764;9.178;2022-07-23T14:36:08;6.17;;;5.73;;
33792;SDS011;20105;48.764;9.178;2022-07-23T14:38:34;6.77;;;6.10;;
33792;SDS011;20105;48.764;9.178;2022-07-23T14:40:59;6.37;;;5.87;;
33792;SDS011;20105;48.764;9.178;2022-07-23T14:43:25;7.73;;;6.27;;
33792;SDS011;20105;48.764;9.178;2022-07-23T14:45:51;7.20;;;6.63;;
33792;SDS011;20105;48.764;9.178;2022-07-23T14:48:17;6.30;;;5.73;;
33792;SDS011;20105;48.764;9.178;2022-07-23T14:50:43;6.63;;;6.13;;
33792;SDS011;20105;48.764;9.178;2022-07-23T14:53:08;10.43;;;6.40;;
33792;SDS011;20105;48.764;9.178;2022-07-23T14:55:34;7.57;;;6.40;;
33792;SDS011;20105;48.764;9.178;2022-07-23T14:58:00;6.63;;;6.13;;
33792;SDS011;20105;48.764;9.178;2022-07-23T15:00:26;6.07;;;5.40;;
33792;SDS011;20105;48.764;9.178;2022-07-23T15:02:52;6.57;;;5.90;;
33792;SDS011;20105;48.764;9.178;2022-07-23T15:05:18;6.33;;;5.73;;
33792;SDS011;20105;48.764;9.178;2022-07-23T15:07:44;6.77;;;6.10;;
33792;SDS011;20105;48.764;9.178;2022-07-23T15:10:09;6.50;;;6.00;;
33792;SDS011;20105;48.764;9.178;2022-07-23T15:12:35;5.70;;;5.20;;
33792;SDS011;20105;48.764;9.178;2022-07-23T15:15:01;5.83;;;5.30;;
33792;SDS011;20105;48.764;9.178;2022-07-23T15:17:26;6.10;;;5.60;;
33792;SDS011;20105;48.764;9.178;2022-07-23T15:19:52;6.10;;;5.70;;
33792;SDS011;20105;48.764;9.178;2022-07-23T15:22:17;5.90;;;5.40;;
33792;SDS011;20105;48.764;9.178;2022-07-23T15:24:43;6.67;;;6.07;;
33792;SDS011;20105;48.764;9.178;2022-07-23T15:27:08;7.23;;;6.53;;
33792;SDS011;20105;48.764;9.178;2022-07-23T15:29:34;6.83;;;5.67;;
33792;SDS011;20105;48.764;9.178;2022-07-23T15:32:00;6.57;;;6.03;;
33792;SDS011;20105;48.764;9.178;2022-07-23T15:34:26;6.37;;;5.87;;
33792;SDS011;20105;48.764;9.178;2022-07-23T15:36:52;7.37;;;6.60;;
33792;SDS011;20105;48.764;9.178;2022-07-23T15:39:17;7.43;;;6.80;;
33792;SDS011;20105;48.764;9.178;2022-07-23T15:41:43;7.07;;;6.37;;